Time;durP1;ratioP1;P1;durP2;ratioP2;P2;SDS_P1;SDS_P2;PMS_P1;PMS_P2;Temp;Humidity;BMP_temperature;BMP_pressure;BME280_temperature;BME280_humidity;BME280_pressure;Samples;Min_cycle;Max_cycle;Signal;HPM_P1;HPM_P2
2021/04/12 00:01:08;;;;;;;3.50;1.33;;;;;;;;;;5069024;28;20773;-67
2021/04/12 00:03:38;;;;;;;4.63;1.63;;;;;;;;;;5067346;28;20279;-67
2021/04/12 00:06:07;;;;;;;2.87;1.30;;;;;;;;;;5065906;28;20777;-67
2021/04/12 00:08:38;;;;;;;5.17;1.80;;;;;;;;;;5064899;28;20866;-67
2021/04/12 00:11:14;;;;;;;2.90;1.30;;;;;;;;;;5066686;28;20351;-67
2021/04/12 00:14:05;;;;;;;3.87;1.30;;;;;;;;;;5068197;28;20274;-67
2021/04/12 00:16:34;;;;;;;5.10;1.43;;;;;;;;;;5052961;28;20291;-67
2021/04/12 00:19:06;;;;;;;4.07;1.70;;;;;;;;;;5064965;28;20282;-67
2021/04/12 00:21:40;;;;;;;3.10;1.33;;;;;;;;;;5068600;28;20329;-67
2021/04/12 00:24:13;;;;;;;6.53;1.67;;;;;;;;;;5067790;28;20024;-67
2021/04/12 00:26:38;;;;;;;5.27;1.50;;;;;;;;;;5059927;28;20286;-67
2021/04/12 00:29:09;;;;;;;4.60;1.80;;;;;;;;;;5067745;28;20300;-66
2021/04/12 00:31:50;;;;;;;7.67;1.87;;;;;;;;;;5061367;28;20024;-67
2021/04/12 00:34:31;;;;;;;6.27;1.90;;;;;;;;;;5067173;28;20305;-67
2021/04/12 00:37:03;;;;;;;5.27;1.90;;;;;;;;;;5049796;28;20290;-67
2021/04/12 00:39:36;;;;;;;8.38;2.33;;;;;;;;;;5065797;28;20281;-67
2021/04/12 00:42:16;;;;;;;7.13;1.87;;;;;;;;;;5066520;28;20032;-67
2021/04/12 00:44:54;;;;;;;4.97;1.97;;;;;;;;;;5065000;28;20356;-67
2021/04/12 00:47:40;;;;;;;6.43;1.70;;;;;;;;;;5068183;28;20809;-67
2021/04/12 00:50:24;;;;;;;8.33;1.43;;;;;;;;;;5049218;28;20288;-67
2021/04/12 00:53:01;;;;;;;4.13;2.00;;;;;;;;;;5067959;28;20718;-67
2021/04/12 00:55:36;;;;;;;3.87;1.83;;;;;;;;;;5064607;28;20274;-67
2021/04/12 00:58:27;;;;;;;9.57;1.93;;;;;;;;;;5068979;28;20282;-67
2021/04/12 01:01:20;;;;;;;5.20;1.93;;;;;;;;;;5071932;22;20320;-77
2021/04/12 01:04:00;;;;;;;6.93;1.80;;;;;;;;;;5071866;28;20329;-77
2021/04/12 01:06:31;;;;;;;4.97;1.77;;;;;;;;;;5053667;28;20016;-77
2021/04/12 01:09:03;;;;;;;3.60;1.67;;;;;;;;;;5069143;28;20282;-77
2021/04/12 01:11:31;;;;;;;6.57;1.53;;;;;;;;;;5082130;28;20278;-78
2021/04/12 01:14:06;;;;;;;5.97;1.90;;;;;;;;;;5073956;28;20329;-79
2021/04/12 01:16:37;;;;;;;5.87;1.50;;;;;;;;;;5057590;28;20290;-79
2021/04/12 01:19:21;;;;;;;6.37;1.67;;;;;;;;;;5074622;28;20368;-79
2021/04/12 01:22:01;;;;;;;4.33;1.60;;;;;;;;;;5059720;28;20844;-79
2021/04/12 01:24:42;;;;;;;7.13;1.80;;;;;;;;;;5065376;28;20289;-79
2021/04/12 01:27:15;;;;;;;3.43;1.60;;;;;;;;;;5064171;28;20286;-79
2021/04/12 01:30:11;;;;;;;4.63;1.60;;;;;;;;;;5069872;28;20277;-79
2021/04/12 01:32:51;;;;;;;8.47;2.03;;;;;;;;;;5065865;28;20719;-79
2021/04/12 01:35:28;;;;;;;6.67;1.70;;;;;;;;;;5075585;28;20314;-79
2021/04/12 01:38:12;;;;;;;5.43;1.70;;;;;;;;;;5062444;28;20289;-79
2021/04/12 01:40:48;;;;;;;6.83;2.33;;;;;;;;;;5065317;28;20408;-79
2021/04/12 01:43:20;;;;;;;9.33;2.13;;;;;;;;;;5081826;28;20702;-79
2021/04/12 01:45:54;;;;;;;6.32;2.30;;;;;;;;;;5076413;28;20275;-79
2021/04/12 01:48:22;;;;;;;9.07;2.77;;;;;;;;;;5076607;28;20078;-79
2021/04/12 01:50:57;;;;;;;6.73;2.10;;;;;;;;;;5075521;28;20321;-79
2021/04/12 01:53:37;;;;;;;6.70;2.10;;;;;;;;;;5063224;28;20718;-79
2021/04/12 01:56:02;;;;;;;6.93;2.00;;;;;;;;;;5071510;28;20430;-79
2021/04/12 01:58:30;;;;;;;4.90;2.10;;;;;;;;;;5077346;28;20338;-79
2021/04/12 02:01:28;;;;;;;5.43;2.20;;;;;;;;;;5073969;28;20048;-79
2021/04/12 02:03:56;;;;;;;4.37;1.93;;;;;;;;;;5033887;28;20627;-79
2021/04/12 02:06:31;;;;;;;6.33;2.40;;;;;;;;;;5069631;28;20346;-79
2021/04/12 02:09:02;;;;;;;5.67;1.70;;;;;;;;;;5070909;28;20311;-79
2021/04/12 02:11:33;;;;;;;8.00;2.50;;;;;;;;;;5085303;28;20399;-79
2021/04/12 02:14:08;;;;;;;6.70;2.00;;;;;;;;;;5079353;28;20308;-79
2021/04/12 02:16:36;;;;;;;6.63;2.50;;;;;;;;;;5065858;28;20298;-79
2021/04/12 02:19:04;;;;;;;7.30;2.23;;;;;;;;;;5064020;28;20279;-79
2021/04/12 02:21:32;;;;;;;9.47;2.20;;;;;;;;;;5079884;28;20278;-80
2021/04/12 02:24:00;;;;;;;6.07;2.50;;;;;;;;;;5072748;28;20318;-80
2021/04/12 02:26:55;;;;;;;8.97;2.20;;;;;;;;;;5055375;28;20277;-80
2021/04/12 02:29:30;;;;;;;11.27;2.47;;;;;;;;;;4985058;28;20328;-80
2021/04/12 02:32:14;;;;;;;4.87;2.40;;;;;;;;;;5074026;28;21146;-80
2021/04/12 02:34:43;;;;;;;5.07;2.37;;;;;;;;;;5083864;28;20274;-80
2021/04/12 02:37:08;;;;;;;7.23;2.37;;;;;;;;;;5071093;28;20279;-80
2021/04/12 02:39:33;;;;;;;7.17;2.63;;;;;;;;;;5073482;28;20819;-80
2021/04/12 02:42:08;;;;;;;6.87;2.60;;;;;;;;;;5070481;28;20036;-80
2021/04/12 02:47:36;;;;;;;5.97;2.42;;;;;;;;;;5074466;28;20315;-80
2021/04/12 02:50:32;;;;;;;5.00;2.20;;;;;;;;;;5081711;28;20028;-80
2021/04/12 02:53:09;;;;;;;9.00;2.17;;;;;;;;;;5070464;28;20490;-80
2021/04/12 02:55:58;;;;;;;5.50;2.30;;;;;;;;;;5058562;28;20289;-80
2021/04/12 02:58:40;;;;;;;7.40;2.30;;;;;;;;;;5070591;28;20356;-80
2021/04/12 03:01:24;;;;;;;17.67;3.23;;;;;;;;;;5074535;28;20773;-80
2021/04/12 03:03:52;;;;;;;6.63;2.50;;;;;;;;;;5055567;28;20294;-80
2021/04/12 03:06:36;;;;;;;9.93;2.37;;;;;;;;;;5072218;28;20353;-80
2021/04/12 03:09:11;;;;;;;6.07;2.60;;;;;;;;;;5074183;28;20293;-80
2021/04/12 03:11:47;;;;;;;6.60;2.50;;;;;;;;;;5068778;28;20746;-80
2021/04/12 03:14:15;;;;;;;5.17;1.97;;;;;;;;;;5074467;28;20604;-80
2021/04/12 03:16:41;;;;;;;8.73;2.50;;;;;;;;;;5077440;28;20302;-80
2021/04/12 03:19:22;;;;;;;6.27;2.10;;;;;;;;;;5062151;28;20281;-80
2021/04/12 03:22:05;;;;;;;7.53;2.20;;;;;;;;;;5083780;28;20039;-80
2021/04/12 03:24:31;;;;;;;4.80;2.30;;;;;;;;;;5076143;28;20287;-80
2021/04/12 03:27:02;;;;;;;6.83;2.73;;;;;;;;;;5079225;28;20773;-79
2021/04/12 03:29:50;;;;;;;8.00;2.63;;;;;;;;;;5073473;28;20036;-79
2021/04/12 03:32:28;;;;;;;12.40;2.97;;;;;;;;;;5033746;28;20377;-79
2021/04/12 03:35:03;;;;;;;7.17;2.37;;;;;;;;;;5048780;28;20703;-80
2021/04/12 03:37:45;;;;;;;6.07;2.63;;;;;;;;;;5050625;28;20298;-80
2021/04/12 03:40:22;;;;;;;5.82;2.47;;;;;;;;;;5069559;28;20378;-79
2021/04/12 03:43:13;;;;;;;10.33;2.27;;;;;;;;;;5076943;28;20074;-80
2021/04/12 03:45:57;;;;;;;6.17;2.33;;;;;;;;;;5057023;28;20279;-80
2021/04/12 03:48:28;;;;;;;8.40;2.47;;;;;;;;;;5077063;28;20393;-80
2021/04/12 03:50:59;;;;;;;6.27;2.70;;;;;;;;;;5069804;28;20766;-79
2021/04/12 03:53:28;;;;;;;10.37;2.60;;;;;;;;;;5061620;28;20793;-79
2021/04/12 03:55:53;;;;;;;6.57;2.00;;;;;;;;;;5075649;28;20286;-81
2021/04/12 03:58:31;;;;;;;6.70;2.60;;;;;;;;;;5076329;28;20294;-80
2021/04/12 04:00:56;;;;;;;7.37;2.87;;;;;;;;;;5082402;28;20035;-80
2021/04/12 04:03:21;;;;;;;8.03;2.80;;;;;;;;;;5084693;28;20293;-81
2021/04/12 04:05:59;;;;;;;8.13;2.67;;;;;;;;;;5068584;28;20056;-80
2021/04/12 04:08:34;;;;;;;8.47;2.83;;;;;;;;;;5078313;28;20041;-80
2021/04/12 04:11:08;;;;;;;8.27;2.73;;;;;;;;;;5087789;28;20286;-80
2021/04/12 04:13:34;;;;;;;6.97;2.90;;;;;;;;;;5083126;28;20314;-80
2021/04/12 04:16:18;;;;;;;9.83;3.07;;;;;;;;;;5067745;28;20343;-79
2021/04/12 04:18:52;;;;;;;8.30;3.07;;;;;;;;;;5081392;28;20372;-79
2021/04/12 04:21:18;;;;;;;11.20;2.73;;;;;;;;;;5063900;28;20351;-79
2021/04/12 04:24:09;;;;;;;9.93;2.47;;;;;;;;;;5049558;28;20259;-79
2021/04/12 04:26:43;;;;;;;10.80;2.80;;;;;;;;;;5041423;28;20114;-79
2021/04/12 04:29:28;;;;;;;8.17;3.10;;;;;;;;;;5085605;28;20282;-79
2021/04/12 04:32:02;;;;;;;6.97;2.50;;;;;;;;;;5073012;28;20278;-79
2021/04/12 04:34:27;;;;;;;10.17;3.03;;;;;;;;;;5066132;28;20320;-79
2021/04/12 04:37:17;;;;;;;7.73;2.60;;;;;;;;;;5074440;28;20338;-79
2021/04/12 04:39:42;;;;;;;10.73;3.53;;;;;;;;;;5070400;28;20035;-79
2021/04/12 04:42:10;;;;;;;11.43;2.90;;;;;;;;;;5081807;28;20266;-79
2021/04/12 04:44:56;;;;;;;8.83;3.33;;;;;;;;;;5076066;28;20048;-79
2021/04/12 04:47:30;;;;;;;5.50;2.60;;;;;;;;;;5070931;28;20286;-80
2021/04/12 04:50:09;;;;;;;6.03;2.60;;;;;;;;;;5077930;28;20832;-80
2021/04/12 04:52:52;;;;;;;12.63;4.83;;;;;;;;;;5078876;28;20293;-79
2021/04/12 04:55:24;;;;;;;11.37;3.57;;;;;;;;;;5077912;28;20278;-79
2021/04/12 04:58:09;;;;;;;7.83;3.27;;;;;;;;;;5089336;28;20286;-79
2021/04/12 05:00:56;;;;;;;6.23;2.40;;;;;;;;;;5062153;28;20310;-79
2021/04/12 05:03:52;;;;;;;7.23;2.73;;;;;;;;;;5020862;28;20283;-80
2021/04/12 05:06:23;;;;;;;10.70;3.10;;;;;;;;;;5026900;28;20375;-79
2021/04/12 05:09:13;;;;;;;11.60;3.20;;;;;;;;;;5035449;28;20280;-79
2021/04/12 05:11:41;;;;;;;7.33;3.30;;;;;;;;;;5040480;28;20079;-79
2021/04/12 05:14:07;;;;;;;8.00;3.00;;;;;;;;;;5034503;28;20308;-79
2021/04/12 05:16:41;;;;;;;7.23;3.27;;;;;;;;;;5041763;28;20861;-79
2021/04/12 05:19:15;;;;;;;8.27;2.97;;;;;;;;;;5038392;28;20507;-79
2021/04/12 05:21:41;;;;;;;6.70;3.10;;;;;;;;;;5037697;28;20284;-79
2021/04/12 05:24:12;;;;;;;9.57;2.80;;;;;;;;;;5034052;28;20295;-79
2021/04/12 05:26:57;;;;;;;6.77;3.00;;;;;;;;;;5020334;28;20401;-79
2021/04/12 05:29:41;;;;;;;8.83;3.67;;;;;;;;;;5018325;28;20283;-79
2021/04/12 05:32:19;;;;;;;7.97;2.90;;;;;;;;;;5022657;28;20338;-79
2021/04/12 05:34:57;;;;;;;11.63;2.93;;;;;;;;;;5029873;28;20731;-79
2021/04/12 05:37:46;;;;;;;7.60;2.87;;;;;;;;;;5039871;28;20759;-79
2021/04/12 05:40:43;;;;;;;12.07;3.03;;;;;;;;;;5045887;28;20296;-79
2021/04/12 05:43:12;;;;;;;7.17;2.93;;;;;;;;;;4999163;28;20292;-79
2021/04/12 05:45:56;;;;;;;7.93;2.97;;;;;;;;;;5043574;28;20294;-80
2021/04/12 05:48:36;;;;;;;8.30;3.00;;;;;;;;;;5036677;28;20271;-80
2021/04/12 05:51:20;;;;;;;20.13;3.33;;;;;;;;;;5037025;28;20299;-80
2021/04/12 05:53:51;;;;;;;5.83;2.50;;;;;;;;;;5033369;28;20291;-80
2021/04/12 05:56:36;;;;;;;9.87;2.60;;;;;;;;;;5039697;28;20408;-80
2021/04/12 05:59:04;;;;;;;5.53;2.20;;;;;;;;;;5035131;28;20280;-80
2021/04/12 06:01:54;;;;;;;8.20;2.60;;;;;;;;;;5051870;28;20531;-80
2021/04/12 06:04:19;;;;;;;8.63;2.60;;;;;;;;;;5054806;28;20291;-80
2021/04/12 06:06:44;;;;;;;7.00;2.47;;;;;;;;;;5077183;28;20316;-80
2021/04/12 06:09:13;;;;;;;6.63;2.50;;;;;;;;;;5078507;28;20031;-80
2021/04/12 06:11:53;;;;;;;4.57;1.90;;;;;;;;;;5077767;28;20400;-80
2021/04/12 06:14:28;;;;;;;5.93;2.03;;;;;;;;;;5050388;28;20275;-80
2021/04/12 06:17:12;;;;;;;6.63;2.40;;;;;;;;;;5066003;28;20327;-78
2021/04/12 06:19:47;;;;;;;7.80;2.50;;;;;;;;;;5049394;28;20312;-78
2021/04/12 06:22:12;;;;;;;4.60;2.00;;;;;;;;;;5064835;28;20278;-79
2021/04/12 06:24:37;;;;;;;7.30;1.83;;;;;;;;;;5071904;28;20644;-79
2021/04/12 06:27:21;;;;;;;7.13;2.20;;;;;;;;;;5077680;28;20036;-82
2021/04/12 06:30:06;;;;;;;7.20;2.03;;;;;;;;;;5071345;28;20416;-82
2021/04/12 06:32:43;;;;;;;5.60;1.57;;;;;;;;;;5076684;28;20310;-82
2021/04/12 06:35:28;;;;;;;4.80;1.50;;;;;;;;;;5073617;28;20294;-82
2021/04/12 06:37:53;;;;;;;6.40;2.00;;;;;;;;;;5082279;28;20286;-79
2021/04/12 06:40:24;;;;;;;4.17;1.40;;;;;;;;;;5085399;28;20091;-80
2021/04/12 06:42:59;;;;;;;3.50;1.40;;;;;;;;;;5070672;28;20073;-81
2021/04/12 06:45:43;;;;;;;3.50;1.53;;;;;;;;;;5085235;28;20472;-80
2021/04/12 06:48:27;;;;;;;2.63;1.30;;;;;;;;;;5081756;28;20032;-80
2021/04/12 06:51:11;;;;;;;9.77;1.53;;;;;;;;;;5062104;28;20036;-80
2021/04/12 06:53:55;;;;;;;6.00;1.43;;;;;;;;;;5082809;28;20036;-80
2021/04/12 06:56:21;;;;;;;4.60;1.57;;;;;;;;;;5085016;28;20029;-81
2021/04/12 06:58:56;;;;;;;3.83;1.30;;;;;;;;;;5082722;28;20029;-80
2021/04/12 07:01:43;;;;;;;4.40;1.50;;;;;;;;;;5089835;28;20036;-80
2021/04/12 07:04:12;;;;;;;5.30;1.40;;;;;;;;;;5083050;28;20031;-81
2021/04/12 07:06:56;;;;;;;3.83;1.30;;;;;;;;;;5094120;28;20025;-80
2021/04/12 07:09:40;;;;;;;3.57;1.20;;;;;;;;;;5085463;28;20040;-80
2021/04/12 07:12:11;;;;;;;3.13;1.13;;;;;;;;;;5079689;28;20469;-81
2021/04/12 07:14:55;;;;;;;2.47;1.00;;;;;;;;;;5077061;28;20037;-83
2021/04/12 07:17:50;;;;;;;2.00;1.00;;;;;;;;;;5076405;28;20365;-80
2021/04/12 07:20:34;;;;;;;2.77;1.20;;;;;;;;;;5081700;28;20083;-81
2021/04/12 07:23:23;;;;;;;2.13;1.20;;;;;;;;;;5078245;28;20016;-80
2021/04/12 07:26:04;;;;;;;4.13;1.20;;;;;;;;;;5083001;28;20191;-80
2021/04/12 07:28:38;;;;;;;5.00;1.30;;;;;;;;;;5064748;28;20113;-80
2021/04/12 07:31:26;;;;;;;2.57;1.00;;;;;;;;;;5087104;28;20158;-80
2021/04/12 07:33:55;;;;;;;2.07;1.00;;;;;;;;;;5075497;28;20058;-81
2021/04/12 07:36:50;;;;;;;2.30;1.10;;;;;;;;;;5076767;28;20050;-80
2021/04/12 07:39:36;;;;;;;2.80;1.00;;;;;;;;;;5088525;28;20028;-81
2021/04/12 07:42:20;;;;;;;2.87;0.90;;;;;;;;;;5058258;28;20027;-82
2021/04/12 07:45:18;;;;;;;2.93;1.00;;;;;;;;;;5081620;28;20029;-82
2021/04/12 07:47:53;;;;;;;4.10;1.13;;;;;;;;;;5087186;28;20202;-82
2021/04/12 07:50:37;;;;;;;2.87;0.90;;;;;;;;;;5089878;28;20383;-82
2021/04/12 07:53:21;;;;;;;3.23;1.00;;;;;;;;;;5091594;28;20028;-81
2021/04/12 07:56:06;;;;;;;3.93;0.90;;;;;;;;;;5099872;28;20502;-82
2021/04/12 07:58:34;;;;;;;9.33;1.20;;;;;;;;;;5061745;28;20033;-81
2021/04/12 08:01:23;;;;;;;3.70;1.07;;;;;;;;;;5080122;28;20514;-81
2021/04/12 08:04:07;;;;;;;5.77;1.30;;;;;;;;;;5025197;28;20043;-81
2021/04/12 08:06:54;;;;;;;3.03;0.87;;;;;;;;;;5061934;28;20032;-82
2021/04/12 08:09:28;;;;;;;5.07;1.00;;;;;;;;;;5078822;28;20025;-82
2021/04/12 08:11:56;;;;;;;4.40;1.03;;;;;;;;;;5071513;28;20021;-82
2021/04/12 08:14:40;;;;;;;4.00;0.77;;;;;;;;;;5090181;28;20029;-82
2021/04/12 08:17:25;;;;;;;1.73;0.73;;;;;;;;;;5067182;28;20066;-81
2021/04/12 08:20:06;;;;;;;2.83;0.70;;;;;;;;;;5050283;28;20025;-80
2021/04/12 08:22:52;;;;;;;2.83;0.80;;;;;;;;;;5074295;28;20032;-82
2021/04/12 08:25:29;;;;;;;3.97;1.17;;;;;;;;;;5043126;28;20069;-82
2021/04/12 08:28:30;;;;;;;3.03;0.90;;;;;;;;;;5091016;28;20020;-82
2021/04/12 08:31:23;;;;;;;2.63;0.87;;;;;;;;;;5006137;28;20026;-81
2021/04/12 08:34:07;;;;;;;3.40;1.30;;;;;;;;;;5060356;28;20051;-80
2021/04/12 08:36:51;;;;;;;2.30;0.87;;;;;;;;;;5080761;28;20020;-80
2021/04/12 08:39:25;;;;;;;1.97;0.80;;;;;;;;;;5077462;28;20024;-81
2021/04/12 08:42:09;;;;;;;1.77;0.80;;;;;;;;;;5069693;28;20120;-79
2021/04/12 08:45:02;;;;;;;3.57;0.90;;;;;;;;;;5055671;28;20032;-80
2021/04/12 08:47:46;;;;;;;6.30;1.03;;;;;;;;;;5084938;28;20036;-82
2021/04/12 08:50:31;;;;;;;1.43;0.60;;;;;;;;;;5065244;28;20037;-82
2021/04/12 08:53:11;;;;;;;2.47;0.90;;;;;;;;;;5083474;28;20055;-82
2021/04/12 08:56:00;;;;;;;2.57;0.80;;;;;;;;;;5085777;28;20028;-82
2021/04/12 08:58:28;;;;;;;1.80;0.77;;;;;;;;;;5023043;28;20085;-84
2021/04/12 09:01:00;;;;;;;1.73;0.70;;;;;;;;;;5082635;28;20097;-78
2021/04/12 09:03:40;;;;;;;1.95;0.90;;;;;;;;;;5072059;28;20391;-78
2021/04/12 09:06:20;;;;;;;1.33;0.60;;;;;;;;;;5070013;28;20036;-77
2021/04/12 09:08:58;;;;;;;3.23;0.80;;;;;;;;;;5063654;28;20020;-79
2021/04/12 09:11:39;;;;;;;1.43;0.67;;;;;;;;;;5084788;28;20110;-81
2021/04/12 09:14:17;;;;;;;2.37;0.90;;;;;;;;;;5089672;28;20037;-81
2021/04/12 09:16:57;;;;;;;0.90;0.60;;;;;;;;;;5067642;28;20032;-81
2021/04/12 09:19:29;;;;;;;2.87;0.70;;;;;;;;;;5075676;28;20029;-80
2021/04/12 09:22:22;;;;;;;1.17;0.60;;;;;;;;;;5065901;28;20047;-79
2021/04/12 09:25:06;;;;;;;1.02;0.50;;;;;;;;;;5075376;28;20476;-80
2021/04/12 09:27:57;;;;;;;3.63;0.70;;;;;;;;;;5056539;28;20516;-81
2021/04/12 09:30:41;;;;;;;2.97;0.70;;;;;;;;;;5046480;28;20070;-81
2021/04/12 09:33:25;;;;;;;3.30;0.53;;;;;;;;;;5063328;28;20091;-79
2021/04/12 09:35:59;;;;;;;1.63;0.53;;;;;;;;;;5058664;28;20409;-81
2021/04/12 09:38:24;;;;;;;3.57;0.60;;;;;;;;;;5064367;28;20028;-81
2021/04/12 09:41:05;;;;;;;1.93;0.70;;;;;;;;;;5088864;28;20058;-81
2021/04/12 09:43:50;;;;;;;2.30;0.50;;;;;;;;;;5068926;28;20028;-79
2021/04/12 09:46:36;;;;;;;1.40;0.53;;;;;;;;;;5048229;28;20052;-83
2021/04/12 09:49:17;;;;;;;2.00;0.50;;;;;;;;;;5052338;28;20021;-84
2021/04/12 09:51:52;;;;;;;3.00;0.60;;;;;;;;;;5083391;28;20437;-80
2021/04/12 09:54:27;;;;;;;1.10;0.50;;;;;;;;;;5082544;28;20028;-80
2021/04/12 09:57:01;;;;;;;2.57;0.70;;;;;;;;;;5074062;28;20459;-80
2021/04/12 09:59:38;;;;;;;1.10;0.90;;;;;;;;;;5079644;28;20146;-81
2021/04/12 10:02:16;;;;;;;1.83;0.63;;;;;;;;;;5085272;28;20044;-81
2021/04/12 10:04:54;;;;;;;1.00;0.60;;;;;;;;;;5080802;28;20020;-80
2021/04/12 10:07:31;;;;;;;1.60;0.70;;;;;;;;;;5080867;28;20088;-82
2021/04/12 10:10:15;;;;;;;2.50;0.40;;;;;;;;;;5080776;28;20048;-82
2021/04/12 10:12:59;;;;;;;1.57;0.60;;;;;;;;;;5056641;28;20035;-81
2021/04/12 10:15:29;;;;;;;0.77;0.40;;;;;;;;;;5068899;28;20369;-80
2021/04/12 10:17:57;;;;;;;0.50;0.30;;;;;;;;;;5078135;28;20530;-80
2021/04/12 10:20:32;;;;;;;1.67;0.60;;;;;;;;;;5083858;28;20028;-80
2021/04/12 10:23:01;;;;;;;0.97;0.53;;;;;;;;;;5078851;28;20020;-81
2021/04/12 10:25:41;;;;;;;1.30;0.50;;;;;;;;;;5074944;28;20044;-80
2021/04/12 10:28:45;;;;;;;1.83;0.60;;;;;;;;;;5078344;28;21053;-82
2021/04/12 10:31:17;;;;;;;1.53;0.50;;;;;;;;;;4969686;28;20078;-81
2021/04/12 10:33:52;;;;;;;1.92;0.98;;;;;;;;;;4963816;28;20027;-81
2021/04/12 10:36:21;;;;;;;2.13;0.70;;;;;;;;;;5020363;28;20389;-79
2021/04/12 10:38:50;;;;;;;2.90;0.83;;;;;;;;;;5075561;28;20040;-80
2021/04/12 10:41:27;;;;;;;0.97;0.50;;;;;;;;;;5066755;28;20052;-81
2021/04/12 10:43:58;;;;;;;1.23;0.50;;;;;;;;;;5078631;28;20035;-80
2021/04/12 10:46:30;;;;;;;0.80;0.50;;;;;;;;;;5065564;28;20056;-81
2021/04/12 10:49:17;;;;;;;1.20;0.60;;;;;;;;;;5076694;28;20493;-79
2021/04/12 10:51:48;;;;;;;0.70;0.50;;;;;;;;;;5045731;28;20171;-79
2021/04/12 10:54:14;;;;;;;1.52;0.50;;;;;;;;;;5073338;28;20036;-81
2021/04/12 10:56:39;;;;;;;0.90;0.40;;;;;;;;;;5089603;28;20032;-80
2021/04/12 10:59:11;;;;;;;0.73;0.50;;;;;;;;;;5083628;28;20028;-79
2021/04/12 11:01:47;;;;;;;1.60;0.43;;;;;;;;;;5074437;28;20117;-79
2021/04/12 11:04:31;;;;;;;1.07;0.43;;;;;;;;;;5073374;28;20116;-79
2021/04/12 11:07:31;;;;;;;1.07;0.50;;;;;;;;;;5066829;28;20039;-80
2021/04/12 11:10:15;;;;;;;1.77;0.60;;;;;;;;;;4978921;28;20173;-79
2021/04/12 11:12:56;;;;;;;2.00;0.97;;;;;;;;;;5062672;28;20035;-80
2021/04/12 11:15:44;;;;;;;5.00;0.80;;;;;;;;;;5070584;28;20034;-80
2021/04/12 11:18:23;;;;;;;0.87;0.53;;;;;;;;;;5016019;28;20047;-80
2021/04/12 11:20:59;;;;;;;1.43;0.50;;;;;;;;;;5074383;28;20033;-81
2021/04/12 11:23:28;;;;;;;2.00;0.63;;;;;;;;;;5070183;28;20048;-77
2021/04/12 11:26:01;;;;;;;0.97;0.50;;;;;;;;;;5068453;28;20035;-80
2021/04/12 11:28:42;;;;;;;1.33;0.60;;;;;;;;;;5039569;28;20025;-80
2021/04/12 11:31:26;;;;;;;1.10;0.70;;;;;;;;;;5064058;28;20028;-80
2021/04/12 11:33:56;;;;;;;0.70;0.40;;;;;;;;;;5052834;28;20040;-79
2021/04/12 11:36:40;;;;;;;1.47;0.77;;;;;;;;;;5060914;28;20025;-79
2021/04/12 11:39:05;;;;;;;0.60;0.40;;;;;;;;;;5051503;28;20029;-78
2021/04/12 11:41:33;;;;;;;1.00;0.67;;;;;;;;;;5074697;28;20073;-78
2021/04/12 11:44:01;;;;;;;1.00;0.60;;;;;;;;;;5051258;28;20025;-78
2021/04/12 11:46:26;;;;;;;4.77;0.70;;;;;;;;;;5062808;28;20518;-79
2021/04/12 11:48:52;;;;;;;1.13;0.57;;;;;;;;;;5053716;28;20029;-79
2021/04/12 11:51:33;;;;;;;1.90;0.80;;;;;;;;;;5067997;28;20032;-79
2021/04/12 11:54:00;;;;;;;2.07;0.60;;;;;;;;;;5066128;28;20025;-78
2021/04/12 11:56:36;;;;;;;1.30;0.60;;;;;;;;;;5056323;28;20103;-79
2021/04/12 11:59:07;;;;;;;2.47;0.80;;;;;;;;;;5062283;28;20025;-79
2021/04/12 12:01:32;;;;;;;1.73;0.70;;;;;;;;;;5069540;28;20071;-79
2021/04/12 12:04:07;;;;;;;1.03;0.60;;;;;;;;;;5067177;28;20396;-79
2021/04/12 12:06:52;;;;;;;0.63;0.50;;;;;;;;;;5075487;28;20013;-79
2021/04/12 12:09:35;;;;;;;1.80;0.73;;;;;;;;;;5059364;28;20028;-78
2021/04/12 12:12:09;;;;;;;1.70;0.73;;;;;;;;;;5057498;28;20036;-78
2021/04/12 12:14:56;;;;;;;1.93;0.80;;;;;;;;;;5074721;28;20550;-78
2021/04/12 12:17:22;;;;;;;2.73;0.87;;;;;;;;;;5071093;28;20039;-78
2021/04/12 12:19:49;;;;;;;2.30;0.60;;;;;;;;;;5071088;28;20016;-78
2021/04/12 12:22:20;;;;;;;5.50;0.90;;;;;;;;;;5066599;28;20036;-78
2021/04/12 12:25:04;;;;;;;1.57;0.90;;;;;;;;;;5075679;28;20032;-78
2021/04/12 12:27:35;;;;;;;2.07;0.70;;;;;;;;;;5070872;28;20063;-78
2021/04/12 12:30:10;;;;;;;2.50;0.80;;;;;;;;;;5056646;28;20472;-78
2021/04/12 12:32:40;;;;;;;2.53;0.80;;;;;;;;;;5067363;28;20028;-80
2021/04/12 12:35:26;;;;;;;1.33;0.63;;;;;;;;;;5070332;28;20035;-79
2021/04/12 12:38:10;;;;;;;3.30;0.97;;;;;;;;;;5075402;28;20387;-79
2021/04/12 12:40:41;;;;;;;2.53;0.80;;;;;;;;;;5065875;28;20044;-79
2021/04/12 12:43:08;;;;;;;2.30;0.88;;;;;;;;;;5081045;28;20016;-78
2021/04/12 12:45:37;;;;;;;2.40;0.80;;;;;;;;;;5063886;28;20036;-78
2021/04/12 12:48:05;;;;;;;3.03;0.87;;;;;;;;;;5070944;28;20281;-78
2021/04/12 12:50:44;;;;;;;2.80;1.10;;;;;;;;;;5064880;28;20279;-78
2021/04/12 12:53:12;;;;;;;3.77;1.47;;;;;;;;;;5088670;28;20392;-78
2021/04/12 12:55:43;;;;;;;2.83;1.10;;;;;;;;;;5076536;28;20806;-77
2021/04/12 12:58:10;;;;;;;1.83;0.80;;;;;;;;;;5066663;28;20360;-77
2021/04/12 13:00:40;;;;;;;4.47;0.90;;;;;;;;;;5076215;28;20285;-77
2021/04/12 13:03:19;;;;;;;3.10;1.30;;;;;;;;;;5059516;28;20814;-78
2021/04/12 13:05:45;;;;;;;3.20;0.80;;;;;;;;;;5063983;28;20028;-78
2021/04/12 13:08:11;;;;;;;6.10;1.00;;;;;;;;;;5069426;28;20104;-78
2021/04/12 13:10:38;;;;;;;5.10;1.20;;;;;;;;;;5055195;28;20074;-79
2021/04/12 13:13:12;;;;;;;3.97;0.77;;;;;;;;;;5045695;28;20052;-80
2021/04/12 13:15:37;;;;;;;2.60;0.87;;;;;;;;;;5058052;28;20109;-79
2021/04/12 13:18:32;;;;;;;2.30;0.60;;;;;;;;;;5050693;28;20461;-79
2021/04/12 13:21:05;;;;;;;3.07;0.87;;;;;;;;;;5044509;28;20044;-79
2021/04/12 13:23:39;;;;;;;1.87;0.80;;;;;;;;;;5069540;28;20025;-80
2021/04/12 13:26:19;;;;;;;2.30;0.60;;;;;;;;;;5056785;28;20025;-79
2021/04/12 13:28:45;;;;;;;3.90;0.80;;;;;;;;;;5060948;28;20359;-79
2021/04/12 13:31:12;;;;;;;2.73;0.80;;;;;;;;;;5066015;28;20109;-80
2021/04/12 13:33:48;;;;;;;2.57;0.80;;;;;;;;;;5056643;28;20036;-80
2021/04/12 13:36:18;;;;;;;3.30;0.90;;;;;;;;;;5077839;28;20122;-80
2021/04/12 13:38:44;;;;;;;3.67;0.77;;;;;;;;;;5056139;28;20021;-81
2021/04/12 13:41:12;;;;;;;1.53;0.63;;;;;;;;;;5058648;28;20529;-79
2021/04/12 13:43:41;;;;;;;3.30;0.60;;;;;;;;;;5051323;28;20021;-80
2021/04/12 13:46:19;;;;;;;3.53;1.13;;;;;;;;;;5063522;28;20032;-80
2021/04/12 13:48:47;;;;;;;2.03;0.70;;;;;;;;;;5056278;28;20090;-79
2021/04/12 13:51:24;;;;;;;2.83;0.70;;;;;;;;;;5059924;28;20052;-79
2021/04/12 13:53:55;;;;;;;1.70;0.90;;;;;;;;;;5059945;28;20016;-79
2021/04/12 13:56:33;;;;;;;1.30;0.60;;;;;;;;;;5063183;28;20017;-79
2021/04/12 13:59:08;;;;;;;2.43;0.70;;;;;;;;;;5060052;28;20538;-80
2021/04/12 14:01:54;;;;;;;15.67;0.93;;;;;;;;;;5046176;28;20072;-79
2021/04/12 14:04:24;;;;;;;1.67;0.70;;;;;;;;;;5067482;28;20028;-80
2021/04/12 14:06:50;;;;;;;1.63;0.63;;;;;;;;;;5073744;28;20447;-79
2021/04/12 14:09:18;;;;;;;1.40;0.70;;;;;;;;;;5076368;28;20032;-79
2021/04/12 14:11:47;;;;;;;1.53;0.60;;;;;;;;;;5074727;28;20032;-80
2021/04/12 14:14:15;;;;;;;2.03;0.80;;;;;;;;;;5082848;28;20499;-79
2021/04/12 14:16:41;;;;;;;2.00;0.60;;;;;;;;;;5068732;28;20043;-79
2021/04/12 14:19:29;;;;;;;0.93;0.57;;;;;;;;;;5077673;28;20028;-79
2021/04/12 14:22:10;;;;;;;2.57;0.77;;;;;;;;;;5060479;28;20041;-78
2021/04/12 14:24:40;;;;;;;1.87;0.73;;;;;;;;;;5061854;28;20039;-79
2021/04/12 14:27:07;;;;;;;3.23;0.70;;;;;;;;;;5070493;28;20016;-79
2021/04/12 14:29:42;;;;;;;1.63;0.77;;;;;;;;;;5075762;28;20670;-78
2021/04/12 14:32:19;;;;;;;2.17;0.87;;;;;;;;;;5069611;28;20538;-79
2021/04/12 14:34:48;;;;;;;1.27;0.70;;;;;;;;;;5055553;28;20052;-79
2021/04/12 14:37:39;;;;;;;2.50;0.80;;;;;;;;;;5070712;28;20043;-78
2021/04/12 14:40:11;;;;;;;3.20;1.20;;;;;;;;;;5057706;28;20083;-78
2021/04/12 14:42:42;;;;;;;1.70;0.80;;;;;;;;;;5054243;28;20464;-77
2021/04/12 14:45:10;;;;;;;1.20;0.70;;;;;;;;;;5063884;28;20024;-77
2021/04/12 14:47:36;;;;;;;1.97;0.90;;;;;;;;;;5058034;28;20036;-78
2021/04/12 14:50:05;;;;;;;1.33;0.70;;;;;;;;;;5067720;28;20078;-77
2021/04/12 14:52:42;;;;;;;6.00;1.57;;;;;;;;;;5061716;28;20094;-77
2021/04/12 14:55:20;;;;;;;2.10;0.90;;;;;;;;;;5070398;28;20032;-78
2021/04/12 14:57:46;;;;;;;3.83;1.17;;;;;;;;;;5070470;28;20478;-77
2021/04/12 15:00:12;;;;;;;2.43;0.97;;;;;;;;;;5070002;28;20249;-79
2021/04/12 15:02:42;;;;;;;3.07;1.07;;;;;;;;;;5069164;28;20411;-78
2021/04/12 15:05:09;;;;;;;3.87;1.00;;;;;;;;;;5070731;28;20023;-78
2021/04/12 15:07:52;;;;;;;2.27;0.90;;;;;;;;;;5072480;28;20032;-78
2021/04/12 15:10:29;;;;;;;2.55;0.80;;;;;;;;;;5071473;28;20031;-79
2021/04/12 15:12:57;;;;;;;2.20;0.87;;;;;;;;;;5064700;28;20036;-78
2021/04/12 15:15:29;;;;;;;2.50;1.03;;;;;;;;;;5054904;28;20470;-78
2021/04/12 15:17:56;;;;;;;3.88;0.88;;;;;;;;;;5063273;28;20056;-79
2021/04/12 15:20:24;;;;;;;1.83;0.80;;;;;;;;;;5055978;28;20134;-78
2021/04/12 15:22:55;;;;;;;3.53;0.97;;;;;;;;;;5071938;28;20056;-78
2021/04/12 15:25:27;;;;;;;1.30;0.65;;;;;;;;;;5061428;28;20035;-78
2021/04/12 15:28:11;;;;;;;0.63;0.50;;;;;;;;;;5061094;28;20029;-78
2021/04/12 15:30:38;;;;;;;3.30;0.80;;;;;;;;;;5075155;28;20452;-78
2021/04/12 15:33:17;;;;;;;4.10;0.70;;;;;;;;;;5064833;28;20036;-78
2021/04/12 15:35:45;;;;;;;0.80;0.50;;;;;;;;;;5082981;28;20101;-80
2021/04/12 15:38:13;;;;;;;1.87;0.80;;;;;;;;;;5091712;28;20457;-79
2021/04/12 15:40:41;;;;;;;0.83;0.50;;;;;;;;;;5076824;28;20016;-80